createdAt,value
2018-10-18T00:00:04.591Z,98252.48
2018-10-18T00:01:09.985Z,98252.56
2018-10-18T00:02:14.452Z,98250.86
2018-10-18T00:03:19.041Z,98247.97
2018-10-18T00:04:24.579Z,98250.39
2018-10-18T00:05:31.267Z,98247.69
2018-10-18T00:06:37.479Z,98246.78
2018-10-18T00:07:43.274Z,98247.05
2018-10-18T00:08:47.724Z,98249.48
2018-10-18T00:09:53.767Z,98252.30
2018-10-18T00:10:58.332Z,98251.41
2018-10-18T00:12:03.835Z,98250.14
2018-10-18T00:13:08.532Z,98255.00
2018-10-18T00:14:13.480Z,98248.25
2018-10-18T00:15:18.146Z,98248.97
2018-10-18T00:16:22.635Z,98250.05
2018-10-18T00:17:32.967Z,98249.14
2018-10-18T00:18:37.521Z,98251.40
2018-10-18T00:19:41.884Z,98250.77
2018-10-18T00:20:46.701Z,98248.25
2018-10-18T00:21:51.214Z,98246.72
2018-10-18T00:22:55.921Z,98247.23
2018-10-18T00:24:00.432Z,98243.19
2018-10-18T00:25:04.884Z,98249.48
2018-10-18T00:26:10.118Z,98247.33
2018-10-18T00:27:15.536Z,98251.83
2018-10-18T00:28:22.766Z,98248.41
2018-10-18T00:29:28.080Z,98252.55
2018-10-18T00:30:32.638Z,98252.37
2018-10-18T00:31:37.297Z,98248.95
2018-10-18T00:32:43.520Z,98254.08
2018-10-18T00:33:50.542Z,98245.31
2018-10-18T00:34:56.569Z,98247.47
2018-10-18T00:36:02.596Z,98244.23
2018-10-18T00:37:07.796Z,98241.71
2018-10-18T00:38:12.394Z,98240.45
2018-10-18T00:39:16.935Z,98248.20
2018-10-18T00:40:21.713Z,98243.97
2018-10-18T00:41:27.259Z,98242.61
2018-10-18T00:42:31.717Z,98242.16
2018-10-18T00:43:37.396Z,98249.73
2018-10-18T00:44:41.884Z,98240.00
2018-10-18T00:45:46.396Z,98239.73
2018-10-18T00:46:51.150Z,98241.17
2018-10-18T00:47:57.477Z,98238.47
2018-10-18T00:49:01.966Z,98236.22
2018-10-18T00:50:08.188Z,98235.82
2018-10-18T00:51:12.807Z,98240.95
2018-10-18T00:52:17.863Z,98239.67
2018-10-18T00:53:23.395Z,98240.39
2018-10-18T00:54:29.035Z,98240.03
2018-10-18T00:55:33.652Z,98239.64
2018-10-18T00:56:38.061Z,98234.17
2018-10-18T00:57:43.505Z,98236.84
2018-10-18T00:58:48.739Z,98241.81
2018-10-18T00:59:55.410Z,98235.27
2018-10-18T01:01:00.650Z,98235.35
2018-10-18T01:02:07.019Z,98236.39
2018-10-18T01:03:12.550Z,98241.70
2018-10-18T01:04:17.058Z,98239.46
2018-10-18T01:05:21.882Z,98240.27
2018-10-18T01:06:27.008Z,98241.53
2018-10-18T01:07:31.567Z,98243.23
2018-10-18T01:08:36.098Z,98243.16
2018-10-18T01:09:40.603Z,98245.69
2018-10-18T01:10:45.929Z,98247.95
2018-10-18T01:11:50.776Z,98248.45
2018-10-18T01:12:55.815Z,98247.92
2018-10-18T01:14:00.436Z,98245.23
2018-10-18T01:15:04.907Z,98250.45
2018-10-18T01:16:09.889Z,98241.73
2018-10-18T01:17:15.216Z,98246.77
2018-10-18T01:18:20.012Z,98244.25
2018-10-18T01:19:25.097Z,98243.70
2018-10-18T01:20:30.254Z,98237.58
2018-10-18T01:21:35.016Z,98243.88
2018-10-18T01:22:41.142Z,98233.88
2018-10-18T01:23:45.803Z,98239.42
2018-10-18T01:24:50.991Z,98239.59
2018-10-18T01:25:55.401Z,98236.62
2018-10-18T01:27:00.003Z,98236.18
2018-10-18T01:28:06.348Z,98234.64
2018-10-18T01:29:10.857Z,98235.09
2018-10-18T01:30:15.338Z,98240.48
2018-10-18T01:31:20.267Z,98240.41
2018-10-18T01:32:24.697Z,98235.95
2018-10-18T01:33:29.159Z,98237.94
2018-10-18T01:34:35.411Z,98235.78
2018-10-18T01:35:40.227Z,98234.88
2018-10-18T01:36:45.300Z,98237.66
2018-10-18T01:37:50.525Z,98240.77
2018-10-18T01:38:55.855Z,98237.44
2018-10-18T01:40:00.829Z,98237.35
2018-10-18T01:41:05.371Z,98243.05
2018-10-18T01:42:09.836Z,98241.22
2018-10-18T01:43:14.296Z,98240.47
2018-10-18T01:44:19.042Z,98237.14
2018-10-18T01:45:23.676Z,98240.19
2018-10-18T01:46:28.140Z,98233.89
2018-10-18T01:47:32.910Z,98233.00
2018-10-18T01:48:37.405Z,98239.13
2018-10-18T01:49:41.838Z,98231.31
2018-10-18T01:50:46.715Z,98237.08
2018-10-18T01:51:51.264Z,98229.07
2018-10-18T01:52:55.753Z,98233.58
2018-10-18T01:54:00.285Z,98229.44
2018-10-18T01:55:05.229Z,98227.81
2018-10-18T01:56:09.739Z,98232.30
2018-10-18T01:57:14.525Z,98234.28
2018-10-18T01:58:18.934Z,98229.88
2018-10-18T01:59:23.783Z,98237.30
2018-10-18T02:00:28.957Z,98230.86
2018-10-18T02:01:33.472Z,98238.06
2018-10-18T02:02:38.737Z,98232.47
2018-10-18T02:03:43.461Z,98238.03
2018-10-18T02:04:47.893Z,98236.75
2018-10-18T02:05:52.359Z,98240.11
2018-10-18T02:06:56.803Z,98239.27
2018-10-18T02:08:01.251Z,98242.11
2018-10-18T02:09:08.464Z,98241.69
2018-10-18T02:10:13.290Z,98242.55
2018-10-18T02:11:17.776Z,98245.14
2018-10-18T02:12:22.246Z,98237.43
2018-10-18T02:13:27.380Z,98242.86
2018-10-18T02:14:31.782Z,98246.47
2018-10-18T02:15:36.226Z,98243.09
2018-10-18T02:16:42.418Z,98243.09
2018-10-18T02:17:46.840Z,98237.66
2018-10-18T02:18:51.286Z,98248.26
2018-10-18T02:19:55.690Z,98239.78
2018-10-18T02:21:00.126Z,98247.50
2018-10-18T02:22:04.643Z,98242.79
2018-10-18T02:23:09.376Z,98241.83
2018-10-18T02:24:13.882Z,98242.19
2018-10-18T02:25:18.561Z,98247.09
2018-10-18T02:26:23.066Z,98244.05
2018-10-18T02:27:27.498Z,98250.70
2018-10-18T02:28:31.945Z,98245.11
2018-10-18T02:29:36.820Z,98243.40
2018-10-18T02:30:41.218Z,98241.70
2018-10-18T02:31:45.636Z,98242.34
2018-10-18T02:32:50.255Z,98241.65
2018-10-18T02:33:55.134Z,98244.65
2018-10-18T02:34:59.551Z,98241.88
2018-10-18T02:36:04.357Z,98246.70
2018-10-18T02:37:08.791Z,98248.85
2018-10-18T02:38:13.213Z,98241.84
2018-10-18T02:39:17.668Z,98246.87
2018-10-18T02:40:22.142Z,98244.41
2018-10-18T02:41:26.574Z,98248.59
2018-10-18T02:42:31.316Z,98250.30
2018-10-18T02:43:38.651Z,98243.11
2018-10-18T02:44:43.131Z,98238.69
2018-10-18T02:45:47.542Z,98241.37
2018-10-18T02:46:51.953Z,98237.41
2018-10-18T02:47:56.402Z,98241.09
2018-10-18T02:49:01.202Z,98240.65
2018-10-18T02:50:06.796Z,98244.58
2018-10-18T02:51:11.313Z,98239.30
2018-10-18T02:52:15.832Z,98239.95
2018-10-18T02:53:20.334Z,98240.23
2018-10-18T02:54:24.789Z,98242.13
2018-10-18T02:55:29.555Z,98241.23
2018-10-18T02:56:33.948Z,98240.87
2018-10-18T02:57:38.392Z,98238.89
2018-10-18T02:58:42.788Z,98243.39
2018-10-18T02:59:47.199Z,98245.02
2018-10-18T03:00:51.741Z,98242.05
2018-10-18T03:01:56.428Z,98244.65
2018-10-18T03:03:01.000Z,98244.28
2018-10-18T03:04:05.450Z,98252.28
2018-10-18T03:05:09.923Z,98250.21
2018-10-18T03:06:14.458Z,98254.52
2018-10-18T03:07:18.894Z,98253.78
2018-10-18T03:08:23.785Z,98255.57
2018-10-18T03:09:28.178Z,98251.88
2018-10-18T03:10:32.597Z,98256.91
2018-10-18T03:11:37.008Z,98255.73
2018-10-18T03:12:41.431Z,98260.64
2018-10-18T03:13:45.872Z,98262.71
2018-10-18T03:14:50.723Z,98264.78
2018-10-18T03:15:55.187Z,98262.47
2018-10-18T03:17:00.079Z,98260.32
2018-10-18T03:18:04.574Z,98269.65
2018-10-18T03:19:09.041Z,98269.56
2018-10-18T03:20:13.467Z,98263.28
2018-10-18T03:21:18.222Z,98271.27
2018-10-18T03:22:29.636Z,98263.73
2018-10-18T03:23:34.143Z,98261.29
2018-10-18T03:24:38.565Z,98268.76
2018-10-18T03:25:43.001Z,98272.38
2018-10-18T03:26:47.447Z,98264.41
2018-10-18T03:27:52.145Z,98266.70
2018-10-18T03:28:57.286Z,98269.13
2018-10-18T03:30:01.778Z,98271.28
2018-10-18T03:31:06.210Z,98284.30
2018-10-18T03:32:10.673Z,98279.35
2018-10-18T03:33:15.230Z,98278.63
2018-10-18T03:34:19.945Z,98283.28
2018-10-18T03:35:24.461Z,98286.25
2018-10-18T03:36:28.936Z,98288.23
2018-10-18T03:37:33.449Z,98289.13
2018-10-18T03:38:37.984Z,98288.55
2018-10-18T03:39:43.272Z,98294.11
2018-10-18T03:40:48.114Z,98287.19
2018-10-18T03:41:52.744Z,98287.13
2018-10-18T03:42:57.186Z,98295.72
2018-10-18T03:44:01.759Z,98296.41
2018-10-18T03:45:06.679Z,98297.67
2018-10-18T03:46:11.170Z,98296.42
2018-10-18T03:47:15.938Z,98292.47
2018-10-18T03:48:20.478Z,98296.91
2018-10-18T03:49:24.900Z,98302.00
2018-10-18T03:50:29.372Z,98298.68
2018-10-18T03:51:34.542Z,98303.48
2018-10-18T03:52:38.967Z,98299.20
2018-10-18T03:53:43.779Z,98298.93
2018-10-18T03:54:48.223Z,98302.70
2018-10-18T03:55:52.686Z,98301.58
2018-10-18T03:56:57.131Z,98303.83
2018-10-18T03:58:01.666Z,98299.17
2018-10-18T03:59:06.482Z,98299.48
2018-10-18T04:00:11.353Z,98299.78
2018-10-18T04:01:15.808Z,98294.23
2018-10-18T04:02:20.282Z,98300.44
2018-10-18T04:03:24.806Z,98299.70
2018-10-18T04:04:29.260Z,98298.38
2018-10-18T04:05:33.729Z,98302.06
2018-10-18T04:06:38.617Z,98297.48
2018-10-18T04:07:43.177Z,98290.76
2018-10-18T04:08:47.692Z,98292.02
2018-10-18T04:09:52.123Z,98301.98
2018-10-18T04:10:56.619Z,98293.64
2018-10-18T04:12:01.244Z,98295.63
2018-10-18T04:13:06.120Z,98296.29
2018-10-18T04:14:10.605Z,98297.02
2018-10-18T04:15:16.024Z,98292.81
2018-10-18T04:16:20.582Z,98297.27
2018-10-18T04:17:25.138Z,98292.61
2018-10-18T04:18:29.755Z,98301.70
2018-10-18T04:19:34.541Z,98302.43
2018-10-18T04:20:39.058Z,98294.89
2018-10-18T04:21:43.580Z,98299.19
2018-10-18T04:22:48.025Z,98301.77
2018-10-18T04:23:52.536Z,98307.61
2018-10-18T04:24:57.008Z,98300.59
2018-10-18T04:26:02.728Z,98302.30
2018-10-18T04:27:07.189Z,98302.78
2018-10-18T04:28:11.718Z,98310.92
2018-10-18T04:29:17.047Z,98313.44
2018-10-18T04:30:21.584Z,98315.06
2018-10-18T04:31:26.130Z,98314.33
2018-10-18T04:32:31.609Z,98310.70
2018-10-18T04:33:37.221Z,98315.73
2018-10-18T04:34:41.759Z,98310.13
2018-10-18T04:35:46.206Z,98312.93
2018-10-18T04:36:50.818Z,98312.27
2018-10-18T04:37:55.819Z,98310.15
2018-10-18T04:39:00.660Z,98314.95
2018-10-18T04:40:05.228Z,98311.78
2018-10-18T04:41:09.694Z,98314.36
2018-10-18T04:42:14.222Z,98314.63
2018-10-18T04:43:18.703Z,98317.05
2018-10-18T04:44:23.904Z,98310.34
2018-10-18T04:45:28.618Z,98314.45
2018-10-18T04:46:33.069Z,98312.84
2018-10-18T04:47:37.638Z,98313.26
2018-10-18T04:48:42.188Z,98314.94
2018-10-18T04:49:46.751Z,98316.19
2018-10-18T04:50:51.239Z,98317.66
2018-10-18T04:51:56.050Z,98324.52
2018-10-18T04:53:01.214Z,98320.05
2018-10-18T04:54:05.803Z,98323.22
2018-10-18T04:55:10.343Z,98323.45
2018-10-18T04:56:15.811Z,98322.77
2018-10-18T04:57:20.323Z,98323.86
2018-10-18T04:58:25.421Z,98323.17
2018-10-18T04:59:29.986Z,98326.78
2018-10-18T05:00:34.488Z,98328.77
2018-10-18T05:01:38.986Z,98326.20
2018-10-18T05:02:44.046Z,98329.08
2018-10-18T05:03:48.798Z,98329.73
2018-10-18T05:04:58.948Z,98327.05
2018-10-18T05:06:05.285Z,98325.54
2018-10-18T05:07:09.897Z,98328.11
2018-10-18T05:08:14.510Z,98322.56
2018-10-18T05:09:19.826Z,98325.81
2018-10-18T05:10:24.350Z,98326.33
2018-10-18T05:11:29.492Z,98326.59
2018-10-18T05:12:33.982Z,98327.61
2018-10-18T05:13:38.438Z,98325.77
2018-10-18T05:14:43.705Z,98327.62
2018-10-18T05:15:48.188Z,98326.45
2018-10-18T05:16:52.683Z,98328.88
2018-10-18T05:17:57.600Z,98323.86
2018-10-18T05:19:02.246Z,98326.47
2018-10-18T05:20:06.839Z,98320.31
2018-10-18T05:21:11.342Z,98324.90
2018-10-18T05:22:16.251Z,98320.90
2018-10-18T05:23:20.727Z,98327.23
2018-10-18T05:24:25.769Z,98323.84
2018-10-18T05:25:31.660Z,98328.77
2018-10-18T05:26:37.333Z,98325.33
2018-10-18T05:27:41.793Z,98327.89
2018-10-18T05:28:46.256Z,98328.16
2018-10-18T05:29:51.068Z,98331.98
2018-10-18T05:44:30.267Z,98339.75
2018-10-18T05:45:34.791Z,98346.61
2018-10-18T05:46:39.270Z,98344.69
2018-10-18T05:47:43.809Z,98346.76
2018-10-18T05:48:48.363Z,98343.70
2018-10-18T05:49:53.442Z,98345.33
2018-10-18T05:50:58.276Z,98352.64
2018-10-18T05:52:03.386Z,98351.91
2018-10-18T05:53:08.637Z,98351.91
2018-10-18T05:54:13.133Z,98354.42
2018-10-18T05:55:17.902Z,98357.59
2018-10-18T05:56:23.650Z,98365.34
2018-10-18T05:57:28.138Z,98363.55
2018-10-18T05:58:33.582Z,98366.63
2018-10-18T05:59:38.961Z,98365.45
2018-10-18T06:00:44.910Z,98373.38
2018-10-18T06:01:51.440Z,98377.87
2018-10-18T06:02:56.510Z,98378.14
2018-10-18T06:04:01.047Z,98380.41
2018-10-18T06:05:09.524Z,98386.09
2018-10-18T06:06:14.073Z,98384.30
2018-10-18T06:07:18.762Z,98384.75
2018-10-18T06:08:23.319Z,98384.58
2018-10-18T06:09:30.186Z,98383.32
2018-10-18T06:10:39.998Z,98391.16
2018-10-18T06:11:44.491Z,98387.30
2018-10-18T06:12:49.248Z,98392.56
2018-10-18T06:13:53.849Z,98391.47
2018-10-18T06:14:58.263Z,98391.38
2018-10-18T06:16:03.050Z,98387.52
2018-10-18T06:17:07.558Z,98394.10
2018-10-18T06:18:12.735Z,98391.13
2018-10-18T06:19:17.396Z,98392.31
2018-10-18T06:20:22.235Z,98395.38
2018-10-18T06:21:27.252Z,98393.95
2018-10-18T06:22:33.655Z,98385.58
2018-10-18T06:23:39.669Z,98385.48
2018-10-18T06:24:44.980Z,98390.17
2018-10-18T06:25:50.840Z,98394.93
2018-10-18T06:26:55.470Z,98391.43
2018-10-18T06:28:00.067Z,98392.73
2018-10-18T06:29:05.001Z,98393.74
2018-10-18T06:30:11.250Z,98394.11
2018-10-18T06:31:19.186Z,98399.87
2018-10-18T06:32:25.701Z,98396.81
2018-10-18T06:33:31.242Z,98394.38
2018-10-18T06:34:35.764Z,98397.35
2018-10-18T06:35:41.639Z,98397.35
2018-10-18T06:36:47.350Z,98395.83
2018-10-18T06:37:51.889Z,98400.08
2018-10-18T06:38:56.336Z,98401.19
2018-10-18T06:40:00.820Z,98398.91
2018-10-18T06:41:06.396Z,98398.71
2018-10-18T06:42:11.182Z,98400.87
2018-10-18T06:43:15.862Z,98400.34
2018-10-18T06:44:20.309Z,98400.25
2018-10-18T06:45:24.808Z,98406.55
2018-10-18T06:46:29.729Z,98408.76
2018-10-18T06:47:34.235Z,98413.91
2018-10-18T06:48:39.425Z,98408.51
2018-10-18T06:49:45.057Z,98413.66
2018-10-18T06:50:50.196Z,98411.62
2018-10-18T06:51:55.399Z,98413.52
2018-10-18T06:52:59.938Z,98407.39
2018-10-18T06:54:04.590Z,98407.48
2018-10-18T06:55:09.414Z,98409.20
2018-10-18T06:56:13.945Z,98410.01
2018-10-18T06:57:19.369Z,98408.33
2018-10-18T06:58:24.079Z,98408.42
2018-10-18T06:59:28.650Z,98403.13
2018-10-18T07:00:33.455Z,98407.73
2018-10-18T07:01:38.548Z,98405.75
2018-10-18T07:02:44.827Z,98415.95
2018-10-18T07:03:51.948Z,98415.11
2018-10-18T07:04:56.568Z,98409.50
2018-10-18T07:06:01.116Z,98414.06
2018-10-18T07:07:05.621Z,98411.22
2018-10-18T07:09:20.487Z,98409.82
2018-10-18T07:10:25.836Z,98402.36
2018-10-18T07:11:32.633Z,98401.33
2018-10-18T07:12:37.976Z,98404.99
2018-10-18T07:13:42.531Z,98402.30
2018-10-18T07:14:47.409Z,98409.17
2018-10-18T07:15:52.092Z,98402.63
2018-10-18T07:16:57.573Z,98407.12
2018-10-18T07:18:03.674Z,98410.95
2018-10-18T07:19:08.128Z,98411.11
2018-10-18T07:20:13.296Z,98409.95
2018-10-18T07:21:18.625Z,98414.07
2018-10-18T07:22:23.358Z,98407.31
2018-10-18T07:23:28.701Z,98413.00
2018-10-18T07:24:33.530Z,98415.11
2018-10-18T07:25:38.766Z,98411.97
2018-10-18T07:26:48.562Z,98409.92
2018-10-18T07:27:53.021Z,98408.42
2018-10-18T07:28:58.554Z,98419.22
2018-10-18T07:30:03.888Z,98413.22
2018-10-18T07:31:08.824Z,98414.67
2018-10-18T07:32:14.785Z,98415.47
2018-10-18T07:33:20.993Z,98416.17
2018-10-18T07:34:27.313Z,98419.16
2018-10-18T07:35:35.505Z,98422.64
2018-10-18T07:36:40.354Z,98419.80
2018-10-18T07:37:46.522Z,98419.86
2018-10-18T07:38:57.094Z,98419.70
2018-10-18T07:40:01.982Z,98431.09
2018-10-18T07:41:07.425Z,98424.32
2018-10-18T07:42:13.203Z,98427.55
2018-10-18T07:43:19.690Z,98426.38
2018-10-18T07:44:24.343Z,98432.04
2018-10-18T07:45:33.250Z,98423.52
2018-10-18T07:46:40.358Z,98425.25
2018-10-18T07:47:48.204Z,98426.73
2018-10-18T07:48:53.535Z,98426.31
2018-10-18T07:49:58.553Z,98433.83
2018-10-18T07:51:05.314Z,98426.44
2018-10-18T07:52:10.412Z,98429.73
2018-10-18T07:53:16.204Z,98431.57
2018-10-18T07:54:21.536Z,98431.59
2018-10-18T07:55:27.507Z,98431.27
2018-10-18T07:56:33.084Z,98433.81
2018-10-18T07:57:38.358Z,98431.59
2018-10-18T07:58:43.594Z,98438.84
2018-10-18T07:59:49.813Z,98435.92
2018-10-18T08:00:57.893Z,98435.12
2018-10-18T08:02:03.654Z,98431.38
2018-10-18T08:03:08.363Z,98440.53
2018-10-18T08:04:14.692Z,98443.21
2018-10-18T08:05:20.784Z,98437.64
2018-10-18T08:06:25.610Z,98447.48
2018-10-18T08:07:30.195Z,98440.17
2018-10-18T08:08:34.861Z,98440.64
2018-10-18T08:09:40.205Z,98432.44
2018-10-18T08:10:46.133Z,98441.95
2018-10-18T08:11:52.988Z,98437.39
2018-10-18T08:12:58.196Z,98441.70
2018-10-18T08:14:04.339Z,98437.27
2018-10-18T08:15:09.873Z,98437.24
2018-10-18T08:16:14.459Z,98442.05
2018-10-18T08:17:20.462Z,98442.11
2018-10-18T08:18:25.941Z,98442.09
2018-10-18T08:19:34.848Z,98442.77
2018-10-18T08:20:42.303Z,98442.64
2018-10-18T08:21:50.185Z,98435.86
2018-10-18T08:23:07.675Z,98437.73
2018-10-18T08:24:13.165Z,98435.19
2018-10-18T08:25:21.276Z,98443.41
2018-10-18T08:26:28.931Z,98440.96
2018-10-18T08:27:34.085Z,98444.30
2018-10-18T08:28:39.173Z,98438.81
2018-10-18T08:29:45.227Z,98443.27
2018-10-18T08:30:57.622Z,98446.22
2018-10-18T08:32:02.964Z,98444.64
2018-10-18T08:33:08.912Z,98449.06
2018-10-18T08:34:13.881Z,98445.59
2018-10-18T08:35:21.516Z,98445.13
2018-10-18T08:36:29.365Z,98441.98
2018-10-18T08:37:34.031Z,98442.05
2018-10-18T08:38:40.272Z,98440.79
2018-10-18T08:39:45.591Z,98436.45
2018-10-18T08:40:51.295Z,98442.66
2018-10-18T08:41:56.741Z,98440.31
2018-10-18T08:43:02.673Z,98439.14
2018-10-18T08:44:08.529Z,98446.90
2018-10-18T08:45:13.099Z,98446.27
2018-10-18T08:46:18.278Z,98448.17
2018-10-18T08:47:24.335Z,98448.50
2018-10-18T08:48:31.502Z,98452.70
2018-10-18T08:49:41.403Z,98449.00
2018-10-18T08:50:47.120Z,98452.27
2018-10-18T08:51:54.183Z,98452.94
2018-10-18T08:52:59.314Z,98450.37
2018-10-18T08:54:05.810Z,98451.35
2018-10-18T08:55:13.786Z,98449.71
2018-10-18T08:56:18.381Z,98453.30
2018-10-18T08:57:23.344Z,98453.55
2018-10-18T08:58:31.576Z,98456.72
2018-10-18T08:59:36.849Z,98453.77
2018-10-18T09:00:41.561Z,98457.58
2018-10-18T09:01:51.348Z,98457.05
2018-10-18T09:02:55.886Z,98457.47
2018-10-18T09:04:00.472Z,98458.45
2018-10-18T09:05:05.473Z,98456.80
2018-10-18T09:06:10.111Z,98452.79
2018-10-18T09:07:15.008Z,98457.48
2018-10-18T09:08:23.860Z,98458.09
2018-10-18T09:09:30.144Z,98463.09
2018-10-18T09:10:34.850Z,98467.07
2018-10-18T09:11:45.972Z,98463.47
2018-10-18T09:12:54.180Z,98458.84
2018-10-18T09:14:01.214Z,98460.01
2018-10-18T09:15:11.294Z,98457.92
2018-10-18T09:16:16.318Z,98464.97
2018-10-18T09:17:23.789Z,98464.50
2018-10-18T09:18:31.574Z,98460.13
2018-10-18T09:19:38.512Z,98462.84
2018-10-18T09:20:45.800Z,98459.18
2018-10-18T09:21:52.440Z,98463.44
2018-10-18T09:22:56.933Z,98464.34
2018-10-18T09:24:02.213Z,98473.20
2018-10-18T09:25:07.289Z,98468.03
2018-10-18T09:26:12.122Z,98466.50
2018-10-18T09:27:17.877Z,98467.00
2018-10-18T09:28:23.478Z,98468.72
2018-10-18T09:29:28.737Z,98474.09
2018-10-18T09:30:33.660Z,98479.28
2018-10-18T09:31:39.499Z,98474.48
2018-10-18T09:32:46.590Z,98472.38
2018-10-18T09:33:52.520Z,98470.30
2018-10-18T09:34:58.500Z,98479.91
2018-10-18T09:36:02.988Z,98485.73
2018-10-18T09:37:07.717Z,98472.66
2018-10-18T09:38:12.578Z,98469.66
2018-10-18T09:39:17.105Z,98471.73
2018-10-18T09:40:24.180Z,98470.83
2018-10-18T09:41:28.788Z,98471.97
2018-10-18T09:42:34.325Z,98469.14
2018-10-18T09:43:39.437Z,98465.72
2018-10-18T09:44:45.093Z,98462.23
2018-10-18T09:45:49.828Z,98466.05
2018-10-18T09:46:56.936Z,98462.61
2018-10-18T09:48:04.710Z,98466.59
2018-10-18T09:49:10.273Z,98469.02
2018-10-18T09:50:16.775Z,98464.51
2018-10-18T09:51:25.802Z,98464.99
2018-10-18T09:52:30.540Z,98459.53
2018-10-18T09:53:36.648Z,98463.27
2018-10-18T09:54:43.154Z,98465.41
2018-10-18T09:55:49.937Z,98467.56
2018-10-18T09:56:55.218Z,98464.48
2018-10-18T09:57:59.938Z,98471.49
2018-10-18T09:59:05.668Z,98467.62
2018-10-18T10:00:15.702Z,98469.51
2018-10-18T10:01:26.167Z,98472.58
2018-10-18T10:03:15.061Z,98471.41
2018-10-18T10:04:22.090Z,98464.52
2018-10-18T10:05:27.325Z,98463.32
2018-10-18T10:06:32.505Z,98464.91
2018-10-18T10:07:38.697Z,98463.88
2018-10-18T10:08:43.970Z,98460.69
2018-10-18T10:09:48.762Z,98460.63
2018-10-18T10:10:56.165Z,98466.39
2018-10-18T10:12:03.568Z,98465.50
2018-10-18T10:13:09.544Z,98460.08
2018-10-18T10:14:17.021Z,98465.23
2018-10-18T10:16:34.316Z,98459.20
2018-10-18T10:17:39.261Z,98464.64
2018-10-18T10:18:44.642Z,98468.31
2018-10-18T10:19:49.455Z,98469.67
2018-10-18T10:20:56.128Z,98466.64
2018-10-18T10:22:00.840Z,98460.97
2018-10-18T10:23:05.593Z,98461.95
2018-10-18T10:24:11.334Z,98459.22
2018-10-18T10:25:17.071Z,98461.23
2018-10-18T10:26:23.029Z,98463.76
2018-10-18T10:27:28.800Z,98465.55
2018-10-18T10:28:36.538Z,98466.59
2018-10-18T10:29:41.605Z,98467.07
2018-10-18T10:43:06.779Z,98459.77
2018-10-18T10:44:14.153Z,98454.67
2018-10-18T10:45:19.500Z,98457.54
2018-10-18T10:46:25.039Z,98453.28
2018-10-18T10:47:29.765Z,98458.30
2018-10-18T10:48:34.755Z,98461.48
2018-10-18T10:49:39.690Z,98461.96
2018-10-18T10:50:44.382Z,98468.65
2018-10-18T10:51:49.806Z,98465.13
2018-10-18T10:52:55.201Z,98467.08
2018-10-18T10:54:00.426Z,98467.37
2018-10-18T10:55:05.723Z,98463.33
2018-10-18T10:56:11.326Z,98468.11
2018-10-18T10:57:16.248Z,98472.33
2018-10-18T10:58:20.880Z,98473.83
2018-10-18T10:59:26.876Z,98468.29
2018-10-18T11:00:37.791Z,98471.64
2018-10-18T11:01:43.638Z,98474.02
2018-10-18T11:02:48.591Z,98474.84
2018-10-18T11:03:55.494Z,98471.96
2018-10-18T11:05:00.988Z,98473.27
2018-10-18T11:06:05.593Z,98478.83
2018-10-18T11:07:11.061Z,98475.13
2018-10-18T11:08:16.958Z,98469.10
2018-10-18T11:09:23.620Z,98473.27
2018-10-18T11:10:28.733Z,98472.44
2018-10-18T11:11:33.245Z,98466.66
2018-10-18T11:12:38.787Z,98464.56
2018-10-18T11:13:44.017Z,98467.81
2018-10-18T11:14:49.498Z,98473.83
2018-10-18T11:15:54.380Z,98461.25
2018-10-18T11:17:01.670Z,98468.42
2018-10-18T11:18:14.003Z,98468.97
2018-10-18T11:19:20.632Z,98464.72
2018-10-18T11:20:26.772Z,98469.07
2018-10-18T11:21:34.433Z,98464.70
2018-10-18T11:22:41.390Z,98466.77
2018-10-18T11:23:46.073Z,98471.05
2018-10-18T11:24:51.854Z,98462.47
2018-10-18T11:26:01.657Z,98461.28
2018-10-18T11:27:06.611Z,98463.61
2018-10-18T11:28:13.013Z,98462.19
2018-10-18T11:29:23.022Z,98463.11
2018-10-18T11:30:31.983Z,98458.41
2018-10-18T11:31:38.597Z,98460.20
2018-10-18T11:32:43.338Z,98460.84
2018-10-18T11:33:49.291Z,98460.50
2018-10-18T11:34:54.862Z,98455.52
2018-10-18T11:36:01.241Z,98457.52
2018-10-18T11:37:06.018Z,98460.91
2018-10-18T11:38:11.660Z,98456.28
2018-10-18T11:39:20.514Z,98458.62
2018-10-18T11:40:26.589Z,98461.83
2018-10-18T11:41:33.344Z,98462.13
2018-10-18T11:42:38.877Z,98461.05
2018-10-18T11:43:49.294Z,98461.94
2018-10-18T11:44:54.522Z,98460.58
2018-10-18T11:46:00.471Z,98457.70
2018-10-18T11:47:05.048Z,98455.92
2018-10-18T11:48:11.867Z,98455.46
2018-10-18T11:49:18.294Z,98461.09
2018-10-18T11:50:26.806Z,98459.86
2018-10-18T11:51:33.632Z,98457.56
2018-10-18T11:52:42.609Z,98462.44
2018-10-18T11:53:47.213Z,98459.88
2018-10-18T11:54:52.702Z,98458.09
2018-10-18T11:56:00.305Z,98459.88
2018-10-18T11:57:05.544Z,98455.13
2018-10-18T11:58:11.323Z,98456.51
2018-10-18T11:59:16.399Z,98453.64
2018-10-18T12:00:28.885Z,98455.34
2018-10-18T12:01:39.088Z,98456.06
2018-10-18T12:02:44.494Z,98460.50
2018-10-18T12:03:50.169Z,98461.52
2018-10-18T12:04:56.151Z,98462.33
2018-10-18T12:06:01.120Z,98463.73
2018-10-18T12:07:06.952Z,98463.08
2018-10-18T12:08:14.454Z,98463.59
2018-10-18T12:09:25.660Z,98464.10
2018-10-18T12:10:30.216Z,98463.93
2018-10-18T12:11:35.737Z,98463.13
2018-10-18T12:12:40.759Z,98457.36
2018-10-18T12:13:45.489Z,98465.34
2018-10-18T12:14:53.557Z,98468.40
2018-10-18T12:15:58.093Z,98468.81
2018-10-18T12:17:02.613Z,98468.23
2018-10-18T12:18:08.393Z,98461.30
2018-10-18T12:19:14.008Z,98463.67
2018-10-18T12:20:20.767Z,98466.05
2018-10-18T12:21:26.090Z,98465.80
2018-10-18T12:22:30.695Z,98467.34
2018-10-18T12:23:38.233Z,98470.05
2018-10-18T12:24:44.366Z,98466.49
2018-10-18T12:25:50.804Z,98468.48
2018-10-18T12:26:57.267Z,98472.86
2018-10-18T12:28:07.548Z,98467.72
2018-10-18T12:29:23.982Z,98466.22
2018-10-18T12:30:31.593Z,98465.56
2018-10-18T12:31:40.340Z,98470.88
2018-10-18T12:32:46.794Z,98468.98
2018-10-18T12:33:53.296Z,98468.42
2018-10-18T12:35:01.538Z,98474.63
2018-10-18T12:36:09.614Z,98475.20
2018-10-18T12:37:17.358Z,98475.00
2018-10-18T12:38:23.972Z,98479.16
2018-10-18T12:39:30.339Z,98470.38
2018-10-18T12:40:38.041Z,98478.96
2018-10-18T12:41:45.848Z,98481.78
2018-10-18T12:42:54.380Z,98473.12
2018-10-18T12:44:02.944Z,98476.00
2018-10-18T12:45:12.701Z,98474.36
2018-10-18T12:46:19.337Z,98474.08
2018-10-18T12:47:28.452Z,98472.20
2018-10-18T12:48:36.003Z,98468.39
2018-10-18T12:49:45.144Z,98471.17
2018-10-18T12:50:54.228Z,98466.42
2018-10-18T12:52:04.309Z,98471.41
2018-10-18T12:53:10.209Z,98468.52
2018-10-18T12:54:20.217Z,98464.23
2018-10-18T12:55:28.996Z,98464.56
2018-10-18T12:56:35.876Z,98458.21
2018-10-18T12:57:46.417Z,98460.05
2018-10-18T12:58:55.033Z,98461.68
2018-10-18T13:00:01.743Z,98457.67
2018-10-18T13:01:07.774Z,98460.19
2018-10-18T13:02:15.186Z,98453.80
2018-10-18T13:03:20.731Z,98452.51
2018-10-18T13:04:25.465Z,98458.33
2018-10-18T13:05:30.692Z,98456.14
2018-10-18T13:06:38.749Z,98453.27
2018-10-18T13:07:45.324Z,98450.95
2018-10-18T13:08:57.245Z,98451.17
2018-10-18T13:10:05.179Z,98454.83
2018-10-18T13:11:11.763Z,98449.91
2018-10-18T13:12:18.319Z,98452.67
2018-10-18T13:15:52.573Z,98453.01
2018-10-18T13:16:58.586Z,98453.87
2018-10-18T13:18:05.824Z,98451.55
2018-10-18T13:19:12.905Z,98450.25
2018-10-18T13:20:19.009Z,98444.30
2018-10-18T13:21:25.940Z,98445.75